sensor_id;sensor_type;location;lat;lon;timestamp;pressure;altitude;pressure_sealevel;temperature;humidity
5146;BME280;2591;48.144;15.152;2023-04-27T00:01:23;76612.41;;;-144.65;88.67
5146;BME280;2591;48.144;15.152;2023-04-27T00:03:54;76610.38;;;-144.65;88.20
5146;BME280;2591;48.144;15.152;2023-04-27T00:06:24;76614.47;;;-144.65;88.22
5146;BME280;2591;48.144;15.152;2023-04-27T00:08:53;76616.50;;;-144.65;88.01
5146;BME280;2591;48.144;15.152;2023-04-27T00:11:20;76618.53;;;-144.65;87.55
5146;BME280;2591;48.144;15.152;2023-04-27T00:13:48;76616.50;;;-144.65;87.78
5146;BME280;2591;48.144;15.152;2023-04-27T00:16:16;76630.78;;;-144.65;87.78
5146;BME280;2591;48.144;15.152;2023-04-27T00:18:44;76636.91;;;-144.65;88.13
5146;BME280;2591;48.144;15.152;2023-04-27T00:21:12;76634.84;;;-144.65;88.60
5146;BME280;2591;48.144;15.152;2023-04-27T00:23:41;76636.91;;;-144.65;89.01
5146;BME280;2591;48.144;15.152;2023-04-27T00:26:09;76636.91;;;-144.65;89.40
5146;BME280;2591;48.144;15.152;2023-04-27T00:28:37;76636.91;;;-144.65;89.46
5146;BME280;2591;48.144;15.152;2023-04-27T00:31:04;76643.00;;;-144.65;89.45
5146;BME280;2591;48.144;15.152;2023-04-27T00:33:32;76643.00;;;-144.65;90.03
5146;BME280;2591;48.144;15.152;2023-04-27T00:36:01;76659.31;;;-144.65;91.50
5146;BME280;2591;48.144;15.152;2023-04-27T00:38:29;76653.19;;;-144.65;92.34
5146;BME280;2591;48.144;15.152;2023-04-27T00:41:01;76665.44;;;-144.65;92.91
5146;BME280;2591;48.144;15.152;2023-04-27T00:43:30;76673.59;;;-144.65;93.09
5146;BME280;2591;48.144;15.152;2023-04-27T00:45:58;76673.59;;;-144.65;93.30
5146;BME280;2591;48.144;15.152;2023-04-27T00:48:27;76685.81;;;-144.65;93.92
5146;BME280;2591;48.144;15.152;2023-04-27T00:50:55;76683.78;;;-144.65;94.50
5146;BME280;2591;48.144;15.152;2023-04-27T00:53:22;76683.78;;;-144.65;95.26
5146;BME280;2591;48.144;15.152;2023-04-27T00:55:50;76694.00;;;-144.65;95.92
5146;BME280;2591;48.144;15.152;2023-04-27T00:58:19;76696.03;;;-144.65;96.34
5146;BME280;2591;48.144;15.152;2023-04-27T01:00:48;76694.00;;;-144.65;97.24
5146;BME280;2591;48.144;15.152;2023-04-27T01:03:16;76702.16;;;-144.65;97.72
5146;BME280;2591;48.144;15.152;2023-04-27T01:05:44;76706.22;;;-144.65;98.01
5146;BME280;2591;48.144;15.152;2023-04-27T01:08:12;76714.38;;;-144.65;98.07
5146;BME280;2591;48.144;15.152;2023-04-27T01:10:40;76706.22;;;-144.65;98.03
5146;BME280;2591;48.144;15.152;2023-04-27T01:13:09;76706.22;;;-144.65;98.65
5146;BME280;2591;48.144;15.152;2023-04-27T01:15:38;76710.31;;;-144.65;99.28
5146;BME280;2591;48.144;15.152;2023-04-27T01:18:05;76714.38;;;-144.65;100.00
5146;BME280;2591;48.144;15.152;2023-04-27T01:20:33;76722.53;;;-144.65;100.00
5146;BME280;2591;48.144;15.152;2023-04-27T01:23:01;76716.41;;;-144.65;100.00
5146;BME280;2591;48.144;15.152;2023-04-27T01:25:30;76722.53;;;-144.65;100.00
5146;BME280;2591;48.144;15.152;2023-04-27T01:27:58;76718.47;;;-144.65;100.00
5146;BME280;2591;48.144;15.152;2023-04-27T01:30:26;76726.63;;;-144.65;100.00
5146;BME280;2591;48.144;15.152;2023-04-27T01:32:55;76730.69;;;-144.65;100.00
5146;BME280;2591;48.144;15.152;2023-04-27T01:35:23;76734.78;;;-144.65;100.00
5146;BME280;2591;48.144;15.152;2023-04-27T01:37:54;76734.78;;;-144.65;100.00
5146;BME280;2591;48.144;15.152;2023-04-27T01:40:23;76747.00;;;-144.65;100.00
5146;BME280;2591;48.144;15.152;2023-04-27T01:42:52;76751.09;;;-144.65;100.00
5146;BME280;2591;48.144;15.152;2023-04-27T01:45:20;76751.09;;;-144.65;100.00
5146;BME280;2591;48.144;15.152;2023-04-27T01:47:49;76751.09;;;-144.65;100.00
5146;BME280;2591;48.144;15.152;2023-04-27T01:50:17;76759.25;;;-144.65;100.00
5146;BME280;2591;48.144;15.152;2023-04-27T01:52:45;76759.25;;;-144.65;100.00
5146;BME280;2591;48.144;15.152;2023-04-27T01:55:13;76771.47;;;-144.65;100.00
5146;BME280;2591;48.144;15.152;2023-04-27T01:57:41;76773.50;;;-144.65;100.00
5146;BME280;2591;48.144;15.152;2023-04-27T02:00:11;76767.41;;;-144.65;100.00
5146;BME280;2591;48.144;15.152;2023-04-27T02:02:39;76771.47;;;-144.65;100.00
5146;BME280;2591;48.144;15.152;2023-04-27T02:05:08;76771.47;;;-144.65;100.00
5146;BME280;2591;48.144;15.152;2023-04-27T02:07:36;76767.41;;;-144.65;100.00
5146;BME280;2591;48.144;15.152;2023-04-27T02:10:04;76771.47;;;-144.65;100.00
5146;BME280;2591;48.144;15.152;2023-04-27T02:12:32;76773.50;;;-144.65;100.00
5146;BME280;2591;48.144;15.152;2023-04-27T02:15:00;76773.50;;;-144.65;100.00
5146;BME280;2591;48.144;15.152;2023-04-27T02:17:30;76771.47;;;-144.65;100.00
5146;BME280;2591;48.144;15.152;2023-04-27T02:20:00;76775.56;;;-144.65;100.00
5146;BME280;2591;48.144;15.152;2023-04-27T02:22:28;76773.50;;;-144.65;100.00
5146;BME280;2591;48.144;15.152;2023-04-27T02:24:56;76771.47;;;-144.65;100.00
5146;BME280;2591;48.144;15.152;2023-04-27T02:27:23;76779.63;;;-144.65;100.00
5146;BME280;2591;48.144;15.152;2023-04-27T02:29:55;76779.63;;;-144.65;100.00
5146;BME280;2591;48.144;15.152;2023-04-27T02:32:23;76787.78;;;-144.65;100.00
5146;BME280;2591;48.144;15.152;2023-04-27T02:34:52;76779.63;;;-144.65;100.00
5146;BME280;2591;48.144;15.152;2023-04-27T02:37:22;76779.63;;;-144.65;100.00
5146;BME280;2591;48.144;15.152;2023-04-27T02:39:50;76779.63;;;-144.65;100.00
5146;BME280;2591;48.144;15.152;2023-04-27T02:42:18;76775.56;;;-144.65;100.00
5146;BME280;2591;48.144;15.152;2023-04-27T02:44:46;76777.59;;;-144.65;100.00
5146;BME280;2591;48.144;15.152;2023-04-27T02:47:14;76775.56;;;-144.65;100.00
5146;BME280;2591;48.144;15.152;2023-04-27T02:49:42;76781.66;;;-144.65;100.00
5146;BME280;2591;48.144;15.152;2023-04-27T02:52:11;76777.59;;;-144.65;100.00
5146;BME280;2591;48.144;15.152;2023-04-27T02:54:39;76779.63;;;-144.65;100.00
5146;BME280;2591;48.144;15.152;2023-04-27T02:57:07;76783.72;;;-144.65;100.00
5146;BME280;2591;48.144;15.152;2023-04-27T02:59:34;76773.50;;;-144.65;100.00
5146;BME280;2591;48.144;15.152;2023-04-27T03:02:02;76775.56;;;-144.65;100.00
5146;BME280;2591;48.144;15.152;2023-04-27T03:04:30;76785.75;;;-144.65;100.00
5146;BME280;2591;48.144;15.152;2023-04-27T03:06:58;76795.94;;;-144.65;100.00
5146;BME280;2591;48.144;15.152;2023-04-27T03:09:27;76795.94;;;-144.65;100.00
5146;BME280;2591;48.144;15.152;2023-04-27T03:11:55;76789.81;;;-144.65;100.00
5146;BME280;2591;48.144;15.152;2023-04-27T03:14:23;76785.75;;;-144.65;100.00
5146;BME280;2591;48.144;15.152;2023-04-27T03:16:50;76795.94;;;-144.65;100.00
5146;BME280;2591;48.144;15.152;2023-04-27T03:19:19;76795.94;;;-144.65;100.00
5146;BME280;2591;48.144;15.152;2023-04-27T03:21:47;76797.97;;;-144.65;100.00
5146;BME280;2591;48.144;15.152;2023-04-27T03:24:15;76795.94;;;-144.65;100.00
5146;BME280;2591;48.144;15.152;2023-04-27T03:26:44;76791.88;;;-144.65;100.00
5146;BME280;2591;48.144;15.152;2023-04-27T03:29:12;76802.06;;;-144.65;100.00
5146;BME280;2591;48.144;15.152;2023-04-27T03:31:40;76800.03;;;-144.65;100.00
5146;BME280;2591;48.144;15.152;2023-04-27T03:34:08;76804.09;;;-144.65;100.00
5146;BME280;2591;48.144;15.152;2023-04-27T03:36:36;76800.03;;;-144.65;100.00
5146;BME280;2591;48.144;15.152;2023-04-27T03:39:03;76800.03;;;-144.65;100.00
5146;BME280;2591;48.144;15.152;2023-04-27T03:41:31;76795.94;;;-144.65;100.00
5146;BME280;2591;48.144;15.152;2023-04-27T03:44:00;76797.97;;;-144.65;100.00
5146;BME280;2591;48.144;15.152;2023-04-27T03:46:28;76797.97;;;-144.65;100.00
5146;BME280;2591;48.144;15.152;2023-04-27T03:48:56;76800.03;;;-144.65;100.00
5146;BME280;2591;48.144;15.152;2023-04-27T03:51:24;76800.03;;;-144.65;100.00
5146;BME280;2591;48.144;15.152;2023-04-27T03:53:52;76795.94;;;-144.65;100.00
5146;BME280;2591;48.144;15.152;2023-04-27T03:56:20;76800.03;;;-144.65;100.00
5146;BME280;2591;48.144;15.152;2023-04-27T03:58:48;76800.03;;;-144.65;100.00
5146;BME280;2591;48.144;15.152;2023-04-27T04:01:17;76795.94;;;-144.65;100.00
5146;BME280;2591;48.144;15.152;2023-04-27T04:03:45;76795.94;;;-144.65;100.00
5146;BME280;2591;48.144;15.152;2023-04-27T04:06:13;76791.88;;;-144.65;100.00
5146;BME280;2591;48.144;15.152;2023-04-27T04:08:41;76795.94;;;-144.65;100.00
5146;BME280;2591;48.144;15.152;2023-04-27T04:11:09;76795.94;;;-144.65;100.00
5146;BME280;2591;48.144;15.152;2023-04-27T04:13:37;76787.78;;;-144.65;100.00
5146;BME280;2591;48.144;15.152;2023-04-27T04:16:06;76795.94;;;-144.65;100.00
5146;BME280;2591;48.144;15.152;2023-04-27T04:18:36;76795.94;;;-144.65;100.00
5146;BME280;2591;48.144;15.152;2023-04-27T04:21:04;76797.97;;;-144.65;100.00
5146;BME280;2591;48.144;15.152;2023-04-27T04:23:32;76787.78;;;-144.65;100.00
5146;BME280;2591;48.144;15.152;2023-04-27T04:25:59;76791.88;;;-144.65;100.00
5146;BME280;2591;48.144;15.152;2023-04-27T04:28:27;76791.88;;;-144.65;100.00
5146;BME280;2591;48.144;15.152;2023-04-27T04:30:56;76791.88;;;-144.65;100.00
5146;BME280;2591;48.144;15.152;2023-04-27T04:33:24;76795.94;;;-144.65;100.00
5146;BME280;2591;48.144;15.152;2023-04-27T04:35:54;76791.88;;;-144.65;100.00
5146;BME280;2591;48.144;15.152;2023-04-27T04:38:21;76785.75;;;-144.65;100.00
5146;BME280;2591;48.144;15.152;2023-04-27T04:40:49;76785.75;;;-144.65;100.00
5146;BME280;2591;48.144;15.152;2023-04-27T04:43:18;76783.72;;;-144.65;100.00
5146;BME280;2591;48.144;15.152;2023-04-27T04:45:47;76779.63;;;-144.65;100.00
5146;BME280;2591;48.144;15.152;2023-04-27T04:48:14;76775.56;;;-144.65;100.00
5146;BME280;2591;48.144;15.152;2023-04-27T04:50:43;76775.56;;;-144.65;100.00
5146;BME280;2591;48.144;15.152;2023-04-27T04:53:12;76765.34;;;-144.65;100.00
5146;BME280;2591;48.144;15.152;2023-04-27T04:55:40;76771.47;;;-144.65;100.00
5146;BME280;2591;48.144;15.152;2023-04-27T04:58:07;76771.47;;;-144.65;100.00
5146;BME280;2591;48.144;15.152;2023-04-27T05:00:35;76767.41;;;-144.65;100.00
5146;BME280;2591;48.144;15.152;2023-04-27T05:03:03;76757.19;;;-144.65;100.00
5146;BME280;2591;48.144;15.152;2023-04-27T05:05:33;76753.13;;;-144.65;100.00
5146;BME280;2591;48.144;15.152;2023-04-27T05:08:01;76751.09;;;-144.65;100.00
5146;BME280;2591;48.144;15.152;2023-04-27T05:10:30;76744.97;;;-144.65;100.00
5146;BME280;2591;48.144;15.152;2023-04-27T05:12:58;76728.66;;;-144.65;99.35
5146;BME280;2591;48.144;15.152;2023-04-27T05:15:26;76730.69;;;-144.65;98.02
5146;BME280;2591;48.144;15.152;2023-04-27T05:17:53;76722.53;;;-144.65;97.79
5146;BME280;2591;48.144;15.152;2023-04-27T05:20:21;76726.63;;;-144.65;95.79
5146;BME280;2591;48.144;15.152;2023-04-27T05:22:49;76722.53;;;-144.65;94.39
5146;BME280;2591;48.144;15.152;2023-04-27T05:25:17;76714.38;;;-144.65;93.93
5146;BME280;2591;48.144;15.152;2023-04-27T05:27:46;76706.22;;;-144.65;93.17
5146;BME280;2591;48.144;15.152;2023-04-27T05:30:14;76710.31;;;-144.65;91.51
5146;BME280;2591;48.144;15.152;2023-04-27T05:32:41;76706.22;;;-144.65;89.57
5146;BME280;2591;48.144;15.152;2023-04-27T05:35:09;76710.31;;;-144.65;89.17
5146;BME280;2591;48.144;15.152;2023-04-27T05:37:37;76706.22;;;-144.65;90.26
5146;BME280;2591;48.144;15.152;2023-04-27T05:40:06;76698.06;;;-144.65;90.33
5146;BME280;2591;48.144;15.152;2023-04-27T05:42:35;76700.09;;;-144.65;88.40
5146;BME280;2591;48.144;15.152;2023-04-27T05:45:06;76694.00;;;-144.65;89.08
5146;BME280;2591;48.144;15.152;2023-04-27T05:47:34;76689.91;;;-144.65;88.67
5146;BME280;2591;48.144;15.152;2023-04-27T05:50:02;76677.69;;;-144.65;89.06
5146;BME280;2591;48.144;15.152;2023-04-27T05:52:30;76679.72;;;-144.65;88.00
5146;BME280;2591;48.144;15.152;2023-04-27T05:54:58;76669.53;;;-144.65;89.17
5146;BME280;2591;48.144;15.152;2023-04-27T05:57:26;76673.59;;;-144.65;87.77
5146;BME280;2591;48.144;15.152;2023-04-27T05:59:54;76673.59;;;-144.65;86.44
5146;BME280;2591;48.144;15.152;2023-04-27T06:02:23;76663.41;;;-144.65;86.73
5146;BME280;2591;48.144;15.152;2023-04-27T06:04:51;76653.19;;;-144.65;87.69
5146;BME280;2591;48.144;15.152;2023-04-27T06:07:19;76649.13;;;-144.65;87.75
5146;BME280;2591;48.144;15.152;2023-04-27T06:09:47;76643.00;;;-144.65;87.28
5146;BME280;2591;48.144;15.152;2023-04-27T06:12:15;76638.94;;;-144.65;87.08
5146;BME280;2591;48.144;15.152;2023-04-27T06:14:42;76632.81;;;-144.65;86.32
5146;BME280;2591;48.144;15.152;2023-04-27T06:17:10;76620.56;;;-144.65;85.60
5146;BME280;2591;48.144;15.152;2023-04-27T06:19:39;76616.50;;;-144.65;86.43
5146;BME280;2591;48.144;15.152;2023-04-27T06:22:08;76614.47;;;-144.65;85.08
5146;BME280;2591;48.144;15.152;2023-04-27T06:24:36;76612.41;;;-144.65;84.05
5146;BME280;2591;48.144;15.152;2023-04-27T06:27:04;76596.09;;;-144.65;84.42
5146;BME280;2591;48.144;15.152;2023-04-27T06:29:32;76604.28;;;-144.65;82.51
5146;BME280;2591;48.144;15.152;2023-04-27T06:32:00;76592.03;;;-144.65;83.45
5146;BME280;2591;48.144;15.152;2023-04-27T06:34:32;76579.78;;;-144.65;82.81
5146;BME280;2591;48.144;15.152;2023-04-27T06:37:02;76583.88;;;-144.65;81.03
5146;BME280;2591;48.144;15.152;2023-04-27T06:39:29;76565.53;;;-144.65;82.11
5146;BME280;2591;48.144;15.152;2023-04-27T06:41:57;76543.09;;;-144.65;82.96
5146;BME280;2591;48.144;15.152;2023-04-27T06:44:25;76530.84;;;-144.65;82.33
5146;BME280;2591;48.144;15.152;2023-04-27T06:46:53;76516.59;;;-144.65;82.89
5146;BME280;2591;48.144;15.152;2023-04-27T06:49:21;76514.53;;;-144.65;80.39
5146;BME280;2591;48.144;15.152;2023-04-27T06:51:49;76510.47;;;-144.65;78.52
5146;BME280;2591;48.144;15.152;2023-04-27T06:54:18;76506.38;;;-144.65;79.44
5146;BME280;2591;48.144;15.152;2023-04-27T06:56:46;76494.16;;;-144.65;77.53
5146;BME280;2591;48.144;15.152;2023-04-27T06:59:14;76473.75;;;-144.65;78.93
5146;BME280;2591;48.144;15.152;2023-04-27T07:01:42;76453.38;;;-144.65;79.14
5146;BME280;2591;48.144;15.152;2023-04-27T07:04:10;76453.38;;;-144.65;75.66
5146;BME280;2591;48.144;15.152;2023-04-27T07:06:38;76453.38;;;-144.65;73.99
5146;BME280;2591;48.144;15.152;2023-04-27T07:09:05;76457.44;;;-144.65;73.46
5146;BME280;2591;48.144;15.152;2023-04-27T07:11:53;76449.28;;;-144.65;71.91
5146;BME280;2591;48.144;15.152;2023-04-27T07:14:22;76461.53;;;-144.65;72.05
5146;BME280;2591;48.144;15.152;2023-04-27T07:16:50;76469.69;;;-144.65;72.50
5146;BME280;2591;48.144;15.152;2023-04-27T07:19:18;76439.09;;;-144.65;71.98
5146;BME280;2591;48.144;15.152;2023-04-27T07:21:46;76430.94;;;-144.65;70.95
5146;BME280;2591;48.144;15.152;2023-04-27T07:24:13;76412.59;;;-144.65;68.61
5146;BME280;2591;48.144;15.152;2023-04-27T07:26:41;76428.91;;;-144.65;70.59
5146;BME280;2591;48.144;15.152;2023-04-27T07:29:11;76392.22;;;-144.65;71.70
5146;BME280;2591;48.144;15.152;2023-04-27T07:31:52;76379.97;;;-144.65;68.51
5146;BME280;2591;48.144;15.152;2023-04-27T07:34:21;76394.25;;;-144.65;69.43
5146;BME280;2591;48.144;15.152;2023-04-27T07:36:50;76386.09;;;-144.65;69.10
5146;BME280;2591;48.144;15.152;2023-04-27T07:39:19;76371.81;;;-144.65;69.04
5146;BME280;2591;48.144;15.152;2023-04-27T07:41:47;76367.75;;;-144.65;68.36
5146;BME280;2591;48.144;15.152;2023-04-27T07:44:17;76355.50;;;-144.65;69.82
5146;BME280;2591;48.144;15.152;2023-04-27T07:46:46;76314.72;;;-144.65;70.12
5146;BME280;2591;48.144;15.152;2023-04-27T07:49:15;76298.41;;;-144.65;67.16
5146;BME280;2591;48.144;15.152;2023-04-27T07:51:43;76302.50;;;-144.65;66.58
5146;BME280;2591;48.144;15.152;2023-04-27T07:54:11;76306.56;;;-144.65;68.36
5146;BME280;2591;48.144;15.152;2023-04-27T07:56:40;76284.16;;;-144.65;64.59
5146;BME280;2591;48.144;15.152;2023-04-27T07:59:08;76296.38;;;-144.65;65.03
5146;BME280;2591;48.144;15.152;2023-04-27T08:01:38;76306.56;;;-144.65;66.12
5146;BME280;2591;48.144;15.152;2023-04-27T08:04:06;76290.25;;;-144.65;66.66
5146;BME280;2591;48.144;15.152;2023-04-27T08:06:34;76273.94;;;-144.65;66.55
5146;BME280;2591;48.144;15.152;2023-04-27T08:09:03;76237.25;;;-144.65;66.90
5146;BME280;2591;48.144;15.152;2023-04-27T08:11:31;76216.84;;;-144.65;62.48
5146;BME280;2591;48.144;15.152;2023-04-27T08:13:59;76241.31;;;-144.65;63.50
5146;BME280;2591;48.144;15.152;2023-04-27T08:16:27;76229.09;;;-144.65;63.21
5146;BME280;2591;48.144;15.152;2023-04-27T08:18:56;76216.84;;;-144.65;63.30
5146;BME280;2591;48.144;15.152;2023-04-27T08:21:26;76216.84;;;-144.65;63.47
5146;BME280;2591;48.144;15.152;2023-04-27T08:23:55;76188.31;;;-144.65;63.25
5146;BME280;2591;48.144;15.152;2023-04-27T08:26:23;76163.84;;;-144.65;62.95
5146;BME280;2591;48.144;15.152;2023-04-27T08:28:52;76131.22;;;-144.65;64.13
5146;BME280;2591;48.144;15.152;2023-04-27T08:31:19;76102.69;;;-144.65;63.48
5146;BME280;2591;48.144;15.152;2023-04-27T08:33:48;76078.22;;;-144.65;63.60
5146;BME280;2591;48.144;15.152;2023-04-27T08:36:17;76078.22;;;-144.65;60.62
5146;BME280;2591;48.144;15.152;2023-04-27T08:38:45;76102.69;;;-144.65;63.32
5146;BME280;2591;48.144;15.152;2023-04-27T08:41:17;76066.00;;;-144.65;62.62
5146;BME280;2591;48.144;15.152;2023-04-27T08:43:48;76033.38;;;-144.65;63.15
5146;BME280;2591;48.144;15.152;2023-04-27T08:46:19;75992.59;;;-144.65;60.71
5146;BME280;2591;48.144;15.152;2023-04-27T08:48:49;75988.50;;;-144.65;61.52
5146;BME280;2591;48.144;15.152;2023-04-27T08:51:19;75984.44;;;-144.65;62.09
5146;BME280;2591;48.144;15.152;2023-04-27T08:53:49;75972.22;;;-144.65;63.03
5146;BME280;2591;48.144;15.152;2023-04-27T08:56:19;75974.25;;;-144.65;60.24
5146;BME280;2591;48.144;15.152;2023-04-27T08:58:48;75988.50;;;-144.65;61.02
5146;BME280;2591;48.144;15.152;2023-04-27T09:01:17;75962.00;;;-144.65;60.00
5146;BME280;2591;48.144;15.152;2023-04-27T09:03:45;75959.97;;;-144.65;59.13
5146;BME280;2591;48.144;15.152;2023-04-27T09:06:14;75951.81;;;-144.65;59.16
5146;BME280;2591;48.144;15.152;2023-04-27T09:08:47;75949.78;;;-144.65;61.89
5146;BME280;2591;48.144;15.152;2023-04-27T09:11:27;75900.84;;;-144.65;60.12
5146;BME280;2591;48.144;15.152;2023-04-27T09:13:56;75886.56;;;-144.65;60.63
5146;BME280;2591;48.144;15.152;2023-04-27T09:16:25;75878.44;;;-144.65;58.57
5146;BME280;2591;48.144;15.152;2023-04-27T09:18:55;75884.53;;;-144.65;59.66
5146;BME280;2591;48.144;15.152;2023-04-27T09:21:24;75839.69;;;-144.65;58.26
5146;BME280;2591;48.144;15.152;2023-04-27T09:23:55;75819.31;;;-144.65;56.70
5146;BME280;2591;48.144;15.152;2023-04-27T09:26:25;75829.50;;;-144.65;59.12
5146;BME280;2591;48.144;15.152;2023-04-27T09:28:54;75805.03;;;-144.65;57.67
5146;BME280;2591;48.144;15.152;2023-04-27T09:31:30;75807.06;;;-144.65;58.81
5146;BME280;2591;48.144;15.152;2023-04-27T09:33:58;75772.41;;;-144.65;58.35
5146;BME280;2591;48.144;15.152;2023-04-27T09:36:26;75727.56;;;-144.65;56.65
5146;BME280;2591;48.144;15.152;2023-04-27T09:38:55;75690.88;;;-144.65;56.35
5146;BME280;2591;48.144;15.152;2023-04-27T09:41:24;75686.78;;;-144.65;56.68
5146;BME280;2591;48.144;15.152;2023-04-27T09:43:54;75662.34;;;-144.65;56.61
5146;BME280;2591;48.144;15.152;2023-04-27T09:46:24;75627.69;;;-144.65;56.16
5146;BME280;2591;48.144;15.152;2023-04-27T09:48:53;75595.06;;;-144.65;55.55
5146;BME280;2591;48.144;15.152;2023-04-27T09:51:23;75552.25;;;-144.65;53.44
5146;BME280;2591;48.144;15.152;2023-04-27T09:53:53;75601.19;;;-144.65;56.36
5146;BME280;2591;48.144;15.152;2023-04-27T09:56:36;75574.69;;;-144.65;51.77
5146;BME280;2591;48.144;15.152;2023-04-27T09:59:16;75609.34;;;-144.65;56.43
5146;BME280;2591;48.144;15.152;2023-04-27T10:01:49;75540.03;;;-144.65;53.33
5146;BME280;2591;48.144;15.152;2023-04-27T10:04:33;75548.19;;;-144.65;53.40
5146;BME280;2591;48.144;15.152;2023-04-27T10:07:06;75540.03;;;-144.65;53.84
5146;BME280;2591;48.144;15.152;2023-04-27T10:09:36;75531.88;;;-144.65;53.31
5146;BME280;2591;48.144;15.152;2023-04-27T10:12:16;75535.94;;;-144.65;49.75
5146;BME280;2591;48.144;15.152;2023-04-27T10:14:51;75576.72;;;-144.65;50.45
5146;BME280;2591;48.144;15.152;2023-04-27T10:17:24;75593.03;;;-144.65;52.30
5146;BME280;2591;48.144;15.152;2023-04-27T10:19:57;75576.72;;;-144.65;50.74
5146;BME280;2591;48.144;15.152;2023-04-27T10:22:36;75584.88;;;-144.65;53.37
5146;BME280;2591;48.144;15.152;2023-04-27T10:25:13;75468.69;;;-144.65;49.22
5146;BME280;2591;48.144;15.152;2023-04-27T10:27:48;75419.75;;;-144.65;51.07
5146;BME280;2591;48.144;15.152;2023-04-27T10:30:18;75332.09;;;-144.65;46.47
5146;BME280;2591;48.144;15.152;2023-04-27T10:32:50;75376.94;;;-144.65;45.16
5146;BME280;2591;48.144;15.152;2023-04-27T10:35:19;75413.66;;;-144.65;48.01
5146;BME280;2591;48.144;15.152;2023-04-27T10:37:47;75358.59;;;-144.65;48.58
5146;BME280;2591;48.144;15.152;2023-04-27T10:40:17;75287.25;;;-144.65;46.31
5146;BME280;2591;48.144;15.152;2023-04-27T10:42:46;75242.41;;;-144.65;46.55
5146;BME280;2591;48.144;15.152;2023-04-27T10:45:25;75213.88;;;-144.65;44.91
5146;BME280;2591;48.144;15.152;2023-04-27T10:47:59;75228.16;;;-144.65;42.95
5146;BME280;2591;48.144;15.152;2023-04-27T10:50:27;75197.56;;;-144.65;41.98
5146;BME280;2591;48.144;15.152;2023-04-27T10:52:59;75266.88;;;-144.65;44.23
5146;BME280;2591;48.144;15.152;2023-04-27T10:55:28;75234.28;;;-144.65;42.82
5146;BME280;2591;48.144;15.152;2023-04-27T10:57:58;75228.16;;;-144.65;43.69
5146;BME280;2591;48.144;15.152;2023-04-27T11:00:30;75162.94;;;-144.65;42.11
5146;BME280;2591;48.144;15.152;2023-04-27T11:03:09;75130.31;;;-144.65;40.58
5146;BME280;2591;48.144;15.152;2023-04-27T11:05:38;75179.25;;;-144.65;42.76
5146;BME280;2591;48.144;15.152;2023-04-27T11:08:07;75217.97;;;-144.65;43.47
5146;BME280;2591;48.144;15.152;2023-04-27T11:10:37;75222.03;;;-144.65;44.75
5146;BME280;2591;48.144;15.152;2023-04-27T11:13:11;75191.47;;;-144.65;42.07
5146;BME280;2591;48.144;15.152;2023-04-27T11:15:46;75234.28;;;-144.65;42.31
5146;BME280;2591;48.144;15.152;2023-04-27T11:18:16;75242.41;;;-144.65;40.86
5146;BME280;2591;48.144;15.152;2023-04-27T11:20:47;75299.50;;;-144.65;42.94
5146;BME280;2591;48.144;15.152;2023-04-27T11:23:23;75319.88;;;-144.65;42.30
5146;BME280;2591;48.144;15.152;2023-04-27T11:25:51;75342.28;;;-144.65;43.35
5146;BME280;2591;48.144;15.152;2023-04-27T11:28:21;75356.56;;;-144.65;43.20
5146;BME280;2591;48.144;15.152;2023-04-27T11:30:56;75372.88;;;-144.65;43.48
5146;BME280;2591;48.144;15.152;2023-04-27T11:33:25;75403.44;;;-144.65;44.25
5146;BME280;2591;48.144;15.152;2023-04-27T11:35:53;75393.25;;;-144.65;45.44
5146;BME280;2591;48.144;15.152;2023-04-27T11:38:22;75283.19;;;-144.65;44.25
5146;BME280;2591;48.144;15.152;2023-04-27T11:40:58;75140.50;;;-144.65;42.14
5146;BME280;2591;48.144;15.152;2023-04-27T11:43:29;75103.81;;;-144.65;43.09
5146;BME280;2591;48.144;15.152;2023-04-27T11:45:57;75038.59;;;-144.65;41.50
5146;BME280;2591;48.144;15.152;2023-04-27T11:48:26;74991.72;;;-144.65;38.98
5146;BME280;2591;48.144;15.152;2023-04-27T11:50:56;75003.94;;;-144.65;40.86
5146;BME280;2591;48.144;15.152;2023-04-27T11:53:28;74977.47;;;-144.65;40.86
5146;BME280;2591;48.144;15.152;2023-04-27T11:55:58;74932.63;;;-144.65;37.78
5146;BME280;2591;48.144;15.152;2023-04-27T11:58:28;74957.06;;;-144.65;39.86
5146;BME280;2591;48.144;15.152;2023-04-27T12:00:56;74959.13;;;-144.65;40.46
5146;BME280;2591;48.144;15.152;2023-04-27T12:03:24;75001.91;;;-144.65;40.19
5146;BME280;2591;48.144;15.152;2023-04-27T12:05:52;75075.28;;;-144.65;39.59
5146;BME280;2591;48.144;15.152;2023-04-27T12:08:22;75136.44;;;-144.65;40.09
5146;BME280;2591;48.144;15.152;2023-04-27T12:10:50;75179.25;;;-144.65;40.22
5146;BME280;2591;48.144;15.152;2023-04-27T12:13:18;75226.13;;;-144.65;41.04
5146;BME280;2591;48.144;15.152;2023-04-27T12:15:47;75242.41;;;-144.65;41.32
5146;BME280;2591;48.144;15.152;2023-04-27T12:18:15;75234.28;;;-144.65;41.14
5146;BME280;2591;48.144;15.152;2023-04-27T12:20:42;75193.50;;;-144.65;40.43
5146;BME280;2591;48.144;15.152;2023-04-27T12:23:10;75124.19;;;-144.65;40.66
5146;BME280;2591;48.144;15.152;2023-04-27T12:25:38;75058.97;;;-144.65;39.49
5146;BME280;2591;48.144;15.152;2023-04-27T12:28:06;75018.22;;;-144.65;38.90
5146;BME280;2591;48.144;15.152;2023-04-27T12:30:34;74991.72;;;-144.65;39.24
5146;BME280;2591;48.144;15.152;2023-04-27T12:33:03;74932.63;;;-144.65;38.72
5146;BME280;2591;48.144;15.152;2023-04-27T12:35:36;74920.38;;;-144.65;38.77
5146;BME280;2591;48.144;15.152;2023-04-27T12:38:04;74950.97;;;-144.65;41.41
5146;BME280;2591;48.144;15.152;2023-04-27T12:40:32;74889.81;;;-144.65;38.07
5146;BME280;2591;48.144;15.152;2023-04-27T12:43:00;74883.69;;;-144.65;37.58
5146;BME280;2591;48.144;15.152;2023-04-27T12:45:28;74932.63;;;-144.65;37.82
5146;BME280;2591;48.144;15.152;2023-04-27T12:47:56;74969.31;;;-144.65;39.93
5146;BME280;2591;48.144;15.152;2023-04-27T12:50:31;74908.16;;;-144.65;37.79
5146;BME280;2591;48.144;15.152;2023-04-27T12:52:59;74944.84;;;-144.65;38.97
5146;BME280;2591;48.144;15.152;2023-04-27T12:55:26;74891.84;;;-144.65;37.71
5146;BME280;2591;48.144;15.152;2023-04-27T12:57:59;74912.22;;;-144.65;38.63